Naomi, South Dakota
Current Conditions -  °F | °C
As of 5:56 AM on Monday 20 Oct 2014 (Local Time) from KFSD Reporting Station
Clear Clear  
Wind Chill:   Ceiling: Unl
Heat Index:   Visibility: 10mi
Dew Point:   Wind: 0mph
Humidity: 89%   Direction: NA
Pressure: 30.04"   Gusts: NA
Location:  43.3014°N, 96.8655°W
Report Text: KFSD 201056Z 00000KT 10SM CLR 03/01 A3004 RMK AO2 SLP177 T00280011
Loading
Personal Weather Stations






























Interactive Weather Map
Tropical Storm Tracking
New forecast layout! Learn more

10-Day Weather Forecast

Advertisements
Track Severe Weather on mobile